Terminal Aerodrome Forecast
Issued by NWS Anchorage, AK

Home | Current Version | Previous Version | Text Only | Print | Product List | Glossary On
Versions: 1 2 3 4 5 6 7 8 9 10 11 12 13 14 15 16 17 18 19 20 21 22
000
FTAK31 PANC 261738
TAFANC
TAF
PANC 261738Z 2618/2724 04006KT P6SM VCFG SCT005 SCT070
      TEMPO 2618/2619 4SM BR BKN005
     FM262000 03006KT P6SM FEW010 BKN100
     FM270800 35005KT P6SM VCSH SCT040 OVC060=

USA.gov is the U.S. government's official web portal to all federal, state and local government web resources and services.